Time;durP1;ratioP1;P1;durP2;ratioP2;P2;SDS_P1;SDS_P2;PMS_P1;PMS_P2;Temp;Humidity;BMP_temperature;BMP_pressure;BME280_temperature;BME280_humidity;BME280_pressure;Samples;Min_cycle;Max_cycle;Signal;HPM_P1;HPM_P2
2021/08/11 00:01:33;;;;;;;6.47;1.40;;;;;;;;;;5011290;28;20172;-56
2021/08/11 00:03:58;;;;;;;8.27;2.33;;;;;;;;;;5015132;28;20037;-55
2021/08/11 00:06:24;;;;;;;5.25;1.30;;;;;;;;;;5013722;28;20042;-56
2021/08/11 00:08:50;;;;;;;8.65;1.60;;;;;;;;;;5013444;28;20582;-56
2021/08/11 00:11:16;;;;;;;8.35;1.50;;;;;;;;;;5012813;28;20045;-56
2021/08/11 00:13:42;;;;;;;3.67;1.20;;;;;;;;;;5012007;28;20055;-55
2021/08/11 00:16:08;;;;;;;5.20;1.30;;;;;;;;;;5011253;28;20029;-55
2021/08/11 00:18:34;;;;;;;4.53;1.17;;;;;;;;;;5012883;28;20038;-56
2021/08/11 00:21:00;;;;;;;7.65;1.20;;;;;;;;;;5013242;28;20092;-56
2021/08/11 00:23:25;;;;;;;7.10;1.77;;;;;;;;;;5012332;28;20517;-56
2021/08/11 00:25:55;;;;;;;6.50;1.55;;;;;;;;;;5011857;28;20041;-58
2021/08/11 00:28:21;;;;;;;5.53;1.73;;;;;;;;;;5011989;28;20139;-56
2021/08/11 00:30:48;;;;;;;5.88;1.40;;;;;;;;;;5012534;28;20505;-55
2021/08/11 00:33:14;;;;;;;4.15;1.60;;;;;;;;;;5012808;28;20052;-56
2021/08/11 00:35:40;;;;;;;4.15;1.23;;;;;;;;;;5010491;28;20049;-56
2021/08/11 00:38:05;;;;;;;6.97;1.40;;;;;;;;;;5011815;28;20041;-55
2021/08/11 00:40:32;;;;;;;4.88;1.33;;;;;;;;;;5011735;28;20054;-56
2021/08/11 00:42:59;;;;;;;3.72;1.38;;;;;;;;;;5012116;28;20058;-56
2021/08/11 00:45:25;;;;;;;4.63;1.40;;;;;;;;;;5010351;28;20042;-55
2021/08/11 00:47:51;;;;;;;4.93;1.23;;;;;;;;;;5009266;28;20436;-56
2021/08/11 00:50:18;;;;;;;11.48;1.40;;;;;;;;;;5011830;28;20121;-56
2021/08/11 00:52:43;;;;;;;4.20;1.20;;;;;;;;;;5011542;28;20046;-56
2021/08/11 00:55:10;;;;;;;4.43;1.25;;;;;;;;;;5012943;28;20738;-56
2021/08/11 00:57:36;;;;;;;3.72;1.30;;;;;;;;;;5009228;28;20386;-55
2021/08/11 01:00:02;;;;;;;4.55;1.38;;;;;;;;;;5012311;28;20057;-56
2021/08/11 01:02:29;;;;;;;3.65;1.40;;;;;;;;;;5010262;28;20041;-55
2021/08/11 01:04:56;;;;;;;4.63;1.48;;;;;;;;;;5011265;28;20352;-56
2021/08/11 01:07:23;;;;;;;3.75;1.30;;;;;;;;;;5010844;28;20075;-55
2021/08/11 01:09:49;;;;;;;3.88;1.30;;;;;;;;;;5012516;28;20406;-56
2021/08/11 01:12:15;;;;;;;3.42;1.25;;;;;;;;;;5010351;28;20046;-56
2021/08/11 01:14:41;;;;;;;5.50;1.20;;;;;;;;;;5010763;28;20081;-56
2021/08/11 01:17:07;;;;;;;3.95;1.48;;;;;;;;;;5011020;28;20030;-56
2021/08/11 01:19:33;;;;;;;4.50;1.30;;;;;;;;;;5008777;28;20060;-55
2021/08/11 01:22:11;;;;;;;4.07;1.20;;;;;;;;;;5011391;28;20426;-55
2021/08/11 01:24:49;;;;;;;4.45;1.30;;;;;;;;;;5025493;28;20042;-55
2021/08/11 01:27:28;;;;;;;3.90;1.45;;;;;;;;;;5010941;28;22706;-56
2021/08/11 01:29:59;;;;;;;7.35;1.30;;;;;;;;;;4990590;28;22254;-55
2021/08/11 01:32:44;;;;;;;4.57;1.63;;;;;;;;;;4990834;28;20194;-55
2021/08/11 01:35:13;;;;;;;7.05;1.20;;;;;;;;;;4991319;28;20314;-55
2021/08/11 01:37:40;;;;;;;9.30;1.40;;;;;;;;;;4990252;28;21720;-55
2021/08/11 01:40:07;;;;;;;3.58;1.38;;;;;;;;;;4990942;28;20510;-56
2021/08/11 01:42:36;;;;;;;4.10;1.33;;;;;;;;;;4999314;28;20068;-56
2021/08/11 01:45:05;;;;;;;4.53;1.45;;;;;;;;;;4997560;28;20037;-56
2021/08/11 01:47:36;;;;;;;7.93;1.48;;;;;;;;;;4991765;28;22088;-56
2021/08/11 01:50:02;;;;;;;5.05;1.42;;;;;;;;;;4990387;28;20597;-56
2021/08/11 01:52:28;;;;;;;4.32;1.33;;;;;;;;;;4990597;28;20046;-54
2021/08/11 01:54:54;;;;;;;3.55;1.30;;;;;;;;;;4992075;28;20048;-53
2021/08/11 01:57:20;;;;;;;4.15;1.50;;;;;;;;;;5005351;28;20038;-56
2021/08/11 01:59:47;;;;;;;3.50;1.33;;;;;;;;;;4990210;28;20049;-55
2021/08/11 02:02:16;;;;;;;3.80;1.48;;;;;;;;;;4999551;28;20042;-58
2021/08/11 02:04:42;;;;;;;4.10;1.30;;;;;;;;;;4991028;28;20034;-56
2021/08/11 02:07:08;;;;;;;4.40;1.30;;;;;;;;;;4990341;28;20525;-56
2021/08/11 02:09:35;;;;;;;4.43;1.30;;;;;;;;;;5000308;28;20038;-55
2021/08/11 02:12:01;;;;;;;4.03;1.35;;;;;;;;;;4997029;28;20117;-56
2021/08/11 02:14:28;;;;;;;4.70;1.45;;;;;;;;;;4990695;28;20119;-56
2021/08/11 02:16:53;;;;;;;4.13;1.40;;;;;;;;;;4998584;28;20030;-57
2021/08/11 02:19:19;;;;;;;5.85;1.60;;;;;;;;;;4998315;28;20056;-55
2021/08/11 02:21:45;;;;;;;3.88;1.35;;;;;;;;;;5011518;28;20133;-55
2021/08/11 02:24:11;;;;;;;8.35;1.70;;;;;;;;;;5011170;28;20060;-55
2021/08/11 02:26:37;;;;;;;5.05;1.38;;;;;;;;;;5014592;28;20050;-56
2021/08/11 02:29:11;;;;;;;6.68;1.40;;;;;;;;;;5015093;28;20540;-54
2021/08/11 02:31:49;;;;;;;4.18;1.30;;;;;;;;;;5000227;28;20379;-55
2021/08/11 02:34:27;;;;;;;6.70;1.65;;;;;;;;;;5015651;28;20228;-55
2021/08/11 02:36:57;;;;;;;6.32;1.60;;;;;;;;;;5010814;28;20426;-54
2021/08/11 02:39:30;;;;;;;6.70;1.70;;;;;;;;;;5003270;28;20045;-55
2021/08/11 02:41:59;;;;;;;6.32;1.40;;;;;;;;;;5015744;28;20033;-55
2021/08/11 02:44:33;;;;;;;3.28;1.10;;;;;;;;;;5014659;28;20080;-56
2021/08/11 02:46:59;;;;;;;6.57;1.70;;;;;;;;;;5014881;28;20037;-55
2021/08/11 02:49:26;;;;;;;3.47;1.45;;;;;;;;;;5014701;28;20038;-56
2021/08/11 02:51:53;;;;;;;7.63;1.35;;;;;;;;;;5015016;28;21082;-56
2021/08/11 02:54:19;;;;;;;6.47;1.27;;;;;;;;;;5013933;28;20117;-55
2021/08/11 02:56:46;;;;;;;5.20;1.50;;;;;;;;;;5015350;28;20041;-56
2021/08/11 02:59:13;;;;;;;4.53;1.63;;;;;;;;;;5015246;28;20091;-55
2021/08/11 03:01:39;;;;;;;10.40;1.77;;;;;;;;;;5012509;28;20448;-56
2021/08/11 03:04:05;;;;;;;6.00;1.30;;;;;;;;;;5014698;28;20955;-55
2021/08/11 03:06:31;;;;;;;5.35;1.70;;;;;;;;;;5014777;28;20049;-55
2021/08/11 03:08:58;;;;;;;6.50;1.83;;;;;;;;;;5015100;28;20045;-55
2021/08/11 03:11:24;;;;;;;5.68;1.83;;;;;;;;;;5013154;28;20197;-55
2021/08/11 03:13:50;;;;;;;3.78;1.35;;;;;;;;;;5015229;28;20088;-57
2021/08/11 03:16:15;;;;;;;4.03;1.30;;;;;;;;;;5028690;28;20067;-54
2021/08/11 03:18:41;;;;;;;6.97;1.88;;;;;;;;;;5014292;28;20037;-58
2021/08/11 03:21:07;;;;;;;3.85;1.33;;;;;;;;;;5014604;28;20374;-55
2021/08/11 03:23:33;;;;;;;4.15;1.48;;;;;;;;;;5012532;28;20092;-55
2021/08/11 03:25:59;;;;;;;5.38;1.70;;;;;;;;;;5013749;28;20045;-58
2021/08/11 03:28:25;;;;;;;4.15;1.42;;;;;;;;;;5013933;28;20065;-55
2021/08/11 03:30:51;;;;;;;5.00;1.67;;;;;;;;;;5013386;28;20129;-55
2021/08/11 03:33:16;;;;;;;8.07;1.60;;;;;;;;;;5012810;28;20046;-52
2021/08/11 03:35:42;;;;;;;5.65;1.73;;;;;;;;;;5012036;28;20072;-55
2021/08/11 03:38:08;;;;;;;4.65;1.67;;;;;;;;;;5011736;28;20048;-55
2021/08/11 03:40:34;;;;;;;14.35;1.80;;;;;;;;;;5012928;28;20045;-55
2021/08/11 03:43:00;;;;;;;10.88;1.85;;;;;;;;;;5013403;28;20060;-55
2021/08/11 03:45:26;;;;;;;7.38;1.50;;;;;;;;;;5012893;28;20041;-54
2021/08/11 03:47:52;;;;;;;4.15;1.40;;;;;;;;;;5012492;28;20041;-56
2021/08/11 03:50:19;;;;;;;4.75;1.67;;;;;;;;;;5012344;28;20037;-55
2021/08/11 03:52:45;;;;;;;8.13;1.67;;;;;;;;;;5013194;28;20755;-55
2021/08/11 03:55:12;;;;;;;5.63;1.52;;;;;;;;;;5013080;28;20069;-55
2021/08/11 03:57:38;;;;;;;8.07;1.77;;;;;;;;;;5013829;28;20056;-56
2021/08/11 04:00:04;;;;;;;8.23;1.50;;;;;;;;;;5013420;28;20034;-53
2021/08/11 04:02:30;;;;;;;4.93;1.45;;;;;;;;;;5011559;28;20925;-56
2021/08/11 04:04:56;;;;;;;4.47;1.27;;;;;;;;;;5013018;28;20076;-55
2021/08/11 04:07:22;;;;;;;15.57;2.33;;;;;;;;;;5012643;28;20133;-56
2021/08/11 04:09:48;;;;;;;8.00;1.40;;;;;;;;;;5012636;28;20118;-56
2021/08/11 04:12:14;;;;;;;5.18;1.70;;;;;;;;;;5011085;28;20241;-55
2021/08/11 04:14:40;;;;;;;4.50;1.42;;;;;;;;;;5010894;28;21468;-55
2021/08/11 04:17:07;;;;;;;5.07;1.52;;;;;;;;;;5012650;28;20038;-55
2021/08/11 04:19:33;;;;;;;4.28;1.40;;;;;;;;;;5013160;28;20188;-54
2021/08/11 04:21:59;;;;;;;4.55;1.48;;;;;;;;;;5012861;28;20584;-52
2021/08/11 04:24:25;;;;;;;4.57;1.48;;;;;;;;;;5011633;28;20041;-55
2021/08/11 04:26:51;;;;;;;4.50;1.58;;;;;;;;;;5013322;28;20129;-52
2021/08/11 04:29:17;;;;;;;6.28;1.33;;;;;;;;;;5011295;28;20049;-52
2021/08/11 04:31:42;;;;;;;6.13;1.23;;;;;;;;;;5011091;28;20048;-54
2021/08/11 04:34:08;;;;;;;3.55;1.10;;;;;;;;;;5012716;28;20691;-55
2021/08/11 04:36:34;;;;;;;5.45;1.23;;;;;;;;;;5011108;28;20124;-55
2021/08/11 04:39:00;;;;;;;5.57;1.50;;;;;;;;;;5012794;28;20048;-53
2021/08/11 04:41:26;;;;;;;8.45;1.48;;;;;;;;;;5011309;28;20049;-53
2021/08/11 04:43:52;;;;;;;4.07;1.20;;;;;;;;;;5013193;28;20037;-55
2021/08/11 04:46:17;;;;;;;9.55;1.35;;;;;;;;;;5011662;28;20132;-54
2021/08/11 04:48:43;;;;;;;4.13;1.42;;;;;;;;;;5013165;28;20037;-55
2021/08/11 04:51:09;;;;;;;7.07;1.40;;;;;;;;;;5013108;28;20128;-51
2021/08/11 04:53:35;;;;;;;3.38;1.27;;;;;;;;;;5012761;28;20049;-54
2021/08/11 04:56:01;;;;;;;4.75;1.27;;;;;;;;;;5011917;28;20041;-55
2021/08/11 04:58:26;;;;;;;4.57;1.45;;;;;;;;;;5011479;28;20526;-54
2021/08/11 05:00:52;;;;;;;3.55;1.25;;;;;;;;;;5011448;28;20044;-52
2021/08/11 05:03:18;;;;;;;6.70;1.35;;;;;;;;;;5012117;28;20509;-52
2021/08/11 05:05:44;;;;;;;8.32;1.25;;;;;;;;;;5026255;28;20044;-53
2021/08/11 05:08:10;;;;;;;10.25;1.42;;;;;;;;;;5012162;28;20053;-52
2021/08/11 05:10:36;;;;;;;3.53;1.02;;;;;;;;;;5012576;28;20855;-56
2021/08/11 05:13:02;;;;;;;4.13;1.13;;;;;;;;;;5011461;28;20475;-53
2021/08/11 05:15:27;;;;;;;5.93;1.17;;;;;;;;;;5010823;28;20565;-55
2021/08/11 05:17:53;;;;;;;5.70;1.25;;;;;;;;;;5011341;28;20860;-53
2021/08/11 05:20:19;;;;;;;4.72;1.33;;;;;;;;;;5013321;28;20041;-55
2021/08/11 05:22:48;;;;;;;6.70;1.40;;;;;;;;;;5011746;28;20441;-52
2021/08/11 05:25:14;;;;;;;3.45;1.20;;;;;;;;;;5011745;28;20048;-55
2021/08/11 05:27:43;;;;;;;5.00;1.25;;;;;;;;;;5011010;28;20033;-55
2021/08/11 05:30:09;;;;;;;3.95;1.33;;;;;;;;;;5011739;28;20037;-52
2021/08/11 05:32:35;;;;;;;6.30;1.33;;;;;;;;;;5011124;28;20037;-53
2021/08/11 05:35:01;;;;;;;4.75;1.33;;;;;;;;;;5010855;28;20611;-55
2021/08/11 05:37:27;;;;;;;7.35;1.50;;;;;;;;;;5009833;28;20052;-54
2021/08/11 05:39:53;;;;;;;4.05;1.25;;;;;;;;;;5010314;28;20045;-54
2021/08/11 05:42:19;;;;;;;7.82;1.52;;;;;;;;;;5008832;28;22363;-54
2021/08/11 05:44:45;;;;;;;10.20;1.40;;;;;;;;;;5011333;28;20060;-55
2021/08/11 05:47:11;;;;;;;4.88;1.30;;;;;;;;;;5010917;28;20387;-52
2021/08/11 05:49:37;;;;;;;4.38;1.55;;;;;;;;;;5010212;28;20092;-54
2021/08/11 05:52:04;;;;;;;3.97;1.27;;;;;;;;;;5012402;28;20445;-52
2021/08/11 05:54:30;;;;;;;3.42;1.42;;;;;;;;;;4992333;28;20124;-55
2021/08/11 05:56:56;;;;;;;5.03;1.38;;;;;;;;;;4993100;28;20037;-55
2021/08/11 05:59:21;;;;;;;5.78;1.35;;;;;;;;;;4989498;28;20141;-54
2021/08/11 06:01:47;;;;;;;5.13;1.48;;;;;;;;;;5003014;28;20048;-55
2021/08/11 06:04:13;;;;;;;4.70;1.60;;;;;;;;;;4995549;28;20034;-54
2021/08/11 06:06:39;;;;;;;6.00;1.35;;;;;;;;;;5002294;28;20409;-56
2021/08/11 06:09:04;;;;;;;4.72;1.45;;;;;;;;;;4995828;28;20039;-55
2021/08/11 06:11:30;;;;;;;3.42;1.33;;;;;;;;;;5005585;28;20065;-56
2021/08/11 06:13:56;;;;;;;4.43;1.45;;;;;;;;;;4999818;28;20081;-54
2021/08/11 06:16:22;;;;;;;6.47;1.50;;;;;;;;;;4998689;28;20044;-52
2021/08/11 06:18:48;;;;;;;5.40;1.50;;;;;;;;;;5001682;28;20475;-53
2021/08/11 06:21:14;;;;;;;5.05;1.75;;;;;;;;;;4990662;28;21014;-52
2021/08/11 06:23:40;;;;;;;6.85;1.48;;;;;;;;;;5001360;28;20041;-55
2021/08/11 06:26:06;;;;;;;7.55;1.50;;;;;;;;;;5004783;28;20042;-55
2021/08/11 06:28:32;;;;;;;4.82;1.50;;;;;;;;;;4991116;28;20042;-53
2021/08/11 06:30:57;;;;;;;6.18;1.33;;;;;;;;;;5005034;28;20093;-54
2021/08/11 06:33:24;;;;;;;3.35;1.30;;;;;;;;;;4999489;28;20038;-54
2021/08/11 06:35:50;;;;;;;7.72;1.55;;;;;;;;;;5002435;28;20060;-54
2021/08/11 06:38:16;;;;;;;5.13;1.40;;;;;;;;;;5001313;28;20030;-55
2021/08/11 06:40:43;;;;;;;3.33;1.20;;;;;;;;;;4997171;28;20937;-52
2021/08/11 06:43:09;;;;;;;5.30;1.60;;;;;;;;;;5007194;28;20531;-53
2021/08/11 06:45:35;;;;;;;4.18;1.55;;;;;;;;;;5002121;28;20045;-55
2021/08/11 06:48:01;;;;;;;4.95;1.40;;;;;;;;;;4996972;28;20119;-52
2021/08/11 06:50:27;;;;;;;5.10;1.55;;;;;;;;;;5001992;28;20060;-55
2021/08/11 06:52:52;;;;;;;4.97;1.48;;;;;;;;;;5010501;28;20449;-55
2021/08/11 06:55:18;;;;;;;4.28;1.52;;;;;;;;;;4992776;28;20050;-54
2021/08/11 06:57:49;;;;;;;5.85;1.90;;;;;;;;;;4993728;28;20034;-57
2021/08/11 07:00:15;;;;;;;3.75;1.40;;;;;;;;;;4993426;28;20038;-56
2021/08/11 07:02:41;;;;;;;5.03;1.45;;;;;;;;;;4998383;28;20046;-55
2021/08/11 07:05:07;;;;;;;4.65;1.35;;;;;;;;;;5006416;28;20046;-56
2021/08/11 07:07:33;;;;;;;6.13;1.30;;;;;;;;;;5007732;28;20123;-53
2021/08/11 07:09:59;;;;;;;3.15;1.10;;;;;;;;;;4997924;28;20125;-55
2021/08/11 07:12:25;;;;;;;4.43;1.50;;;;;;;;;;4992209;28;20057;-53
2021/08/11 07:14:52;;;;;;;5.55;1.33;;;;;;;;;;4994264;28;20073;-55
2021/08/11 07:17:18;;;;;;;4.82;1.45;;;;;;;;;;4994119;28;20087;-56
2021/08/11 07:19:43;;;;;;;4.05;1.38;;;;;;;;;;4995278;28;20042;-54
2021/08/11 07:22:10;;;;;;;4.55;1.65;;;;;;;;;;4994072;28;20506;-56
2021/08/11 07:24:36;;;;;;;3.60;1.30;;;;;;;;;;4993226;28;20394;-53
2021/08/11 07:27:02;;;;;;;6.10;1.63;;;;;;;;;;4993281;28;20038;-54
2021/08/11 07:29:28;;;;;;;8.25;1.55;;;;;;;;;;4990801;28;20042;-55
2021/08/11 07:31:54;;;;;;;4.55;1.60;;;;;;;;;;4977216;28;20664;-56
2021/08/11 07:34:20;;;;;;;7.55;1.58;;;;;;;;;;4990571;28;20136;-55
2021/08/11 07:36:45;;;;;;;5.10;1.48;;;;;;;;;;4991976;28;20141;-56
2021/08/11 07:39:11;;;;;;;4.80;1.58;;;;;;;;;;4992129;28;20125;-56
2021/08/11 07:41:37;;;;;;;3.95;1.50;;;;;;;;;;5012295;28;21408;-55
2021/08/11 07:44:03;;;;;;;5.90;1.58;;;;;;;;;;4999323;28;20041;-54
2021/08/11 07:46:29;;;;;;;4.15;1.33;;;;;;;;;;4993850;28;20518;-55
2021/08/11 07:48:55;;;;;;;3.38;1.13;;;;;;;;;;5008349;28;20042;-53
2021/08/11 07:51:21;;;;;;;3.33;1.00;;;;;;;;;;5000900;28;20037;-56
2021/08/11 07:53:46;;;;;;;3.28;1.17;;;;;;;;;;5001260;28;20096;-55
2021/08/11 07:56:12;;;;;;;4.53;1.20;;;;;;;;;;5001218;28;20045;-56
2021/08/11 07:58:38;;;;;;;3.50;1.00;;;;;;;;;;5001816;28;20066;-53
2021/08/11 08:01:04;;;;;;;2.90;0.93;;;;;;;;;;4994248;28;20034;-55
2021/08/11 08:03:29;;;;;;;6.82;1.05;;;;;;;;;;4993383;28;20050;-55
2021/08/11 08:05:55;;;;;;;3.33;1.27;;;;;;;;;;4992580;28;20588;-54
2021/08/11 08:08:21;;;;;;;3.67;0.90;;;;;;;;;;4991725;28;20041;-54
2021/08/11 08:10:47;;;;;;;3.55;1.25;;;;;;;;;;4993829;28;20071;-53
2021/08/11 08:13:13;;;;;;;4.68;0.90;;;;;;;;;;4993070;28;20109;-56
2021/08/11 08:15:38;;;;;;;3.20;1.08;;;;;;;;;;4992602;28;21924;-52
2021/08/11 08:18:04;;;;;;;2.70;1.00;;;;;;;;;;4993030;28;20510;-56
2021/08/11 08:20:30;;;;;;;3.40;0.90;;;;;;;;;;4992167;28;20046;-55
2021/08/11 08:22:56;;;;;;;5.25;1.17;;;;;;;;;;4992476;28;20124;-54
2021/08/11 08:25:23;;;;;;;2.97;1.15;;;;;;;;;;4993101;28;20510;-54
2021/08/11 08:27:49;;;;;;;4.38;1.25;;;;;;;;;;4993363;28;21721;-56
2021/08/11 08:30:16;;;;;;;2.92;0.93;;;;;;;;;;4993059;28;20035;-54
2021/08/11 08:32:43;;;;;;;4.75;1.20;;;;;;;;;;4991365;28;20124;-56
2021/08/11 08:35:09;;;;;;;3.50;0.95;;;;;;;;;;4991797;28;20403;-55
2021/08/11 08:37:38;;;;;;;3.08;1.05;;;;;;;;;;4993112;28;20038;-56
2021/08/11 08:40:05;;;;;;;6.05;1.10;;;;;;;;;;4992480;28;20041;-56
2021/08/11 08:42:31;;;;;;;3.58;0.98;;;;;;;;;;4991644;28;20514;-52
2021/08/11 08:44:57;;;;;;;4.90;1.20;;;;;;;;;;4992785;28;20044;-55
2021/08/11 08:47:23;;;;;;;2.45;0.93;;;;;;;;;;4990950;28;20049;-52
2021/08/11 08:49:49;;;;;;;2.78;1.00;;;;;;;;;;4992829;28;20034;-54
2021/08/11 08:52:19;;;;;;;3.28;1.08;;;;;;;;;;4991740;28;20050;-54
2021/08/11 08:54:46;;;;;;;2.92;1.10;;;;;;;;;;4992365;28;20074;-54
2021/08/11 08:57:12;;;;;;;3.60;1.02;;;;;;;;;;4991427;28;20048;-54
2021/08/11 08:59:42;;;;;;;3.72;1.05;;;;;;;;;;4990965;28;20779;-54
2021/08/11 09:02:09;;;;;;;4.05;1.05;;;;;;;;;;4993595;28;20154;-52
2021/08/11 09:04:35;;;;;;;3.95;1.23;;;;;;;;;;4991863;28;20147;-54
2021/08/11 09:07:00;;;;;;;3.17;0.90;;;;;;;;;;4993330;28;20442;-55
2021/08/11 09:09:36;;;;;;;2.72;0.80;;;;;;;;;;4989342;28;20074;-53
2021/08/11 09:12:09;;;;;;;7.68;0.98;;;;;;;;;;4989087;28;20038;-54
2021/08/11 09:14:36;;;;;;;3.15;0.90;;;;;;;;;;4998947;28;20057;-53
2021/08/11 09:17:02;;;;;;;2.60;0.75;;;;;;;;;;4998369;28;20964;-54
2021/08/11 09:19:45;;;;;;;2.40;0.80;;;;;;;;;;4993886;28;20027;-54
2021/08/11 09:22:15;;;;;;;2.65;0.70;;;;;;;;;;4991975;28;20121;-55
2021/08/11 09:24:42;;;;;;;2.38;0.80;;;;;;;;;;4993754;28;20041;-54
2021/08/11 09:27:37;;;;;;;3.45;0.98;;;;;;;;;;5003623;28;20048;-55
2021/08/11 09:30:05;;;;;;;2.65;0.77;;;;;;;;;;4985140;28;20037;-54
2021/08/11 09:32:32;;;;;;;2.90;0.88;;;;;;;;;;4990300;28;20042;-52
2021/08/11 09:34:58;;;;;;;5.40;0.75;;;;;;;;;;4990485;28;20053;-52
2021/08/11 09:37:36;;;;;;;2.90;1.00;;;;;;;;;;4990585;28;20488;-55
2021/08/11 09:40:12;;;;;;;3.80;1.00;;;;;;;;;;4997847;28;20041;-54
2021/08/11 09:42:39;;;;;;;2.78;0.88;;;;;;;;;;5009599;28;20061;-56
2021/08/11 09:45:07;;;;;;;2.78;0.80;;;;;;;;;;4999449;28;20053;-54
2021/08/11 09:47:33;;;;;;;4.20;0.77;;;;;;;;;;5003958;28;20044;-55
2021/08/11 09:50:00;;;;;;;8.00;1.25;;;;;;;;;;4993717;28;20441;-53
2021/08/11 09:52:25;;;;;;;2.50;0.80;;;;;;;;;;4991687;28;20046;-55
2021/08/11 09:55:01;;;;;;;4.10;1.00;;;;;;;;;;4992110;28;20816;-54
2021/08/11 09:57:29;;;;;;;4.15;0.98;;;;;;;;;;4991904;28;20176;-54
2021/08/11 09:59:57;;;;;;;2.80;1.02;;;;;;;;;;4993186;28;21043;-53
2021/08/11 10:02:25;;;;;;;2.78;0.90;;;;;;;;;;4990282;28;20797;-54
2021/08/11 10:04:51;;;;;;;3.30;0.90;;;;;;;;;;4991961;28;20038;-54
2021/08/11 10:07:17;;;;;;;3.33;0.95;;;;;;;;;;4996460;28;20175;-53
2021/08/11 10:09:59;;;;;;;4.18;1.00;;;;;;;;;;5004034;28;20073;-51
2021/08/11 10:12:29;;;;;;;2.78;0.75;;;;;;;;;;5009072;28;20029;-54
2021/08/11 10:14:59;;;;;;;3.58;0.82;;;;;;;;;;5010701;28;20064;-54
2021/08/11 10:17:35;;;;;;;3.20;0.85;;;;;;;;;;5010776;28;20806;-52
2021/08/11 10:20:02;;;;;;;2.78;0.88;;;;;;;;;;5010635;28;20041;-54
2021/08/11 10:22:28;;;;;;;2.03;0.75;;;;;;;;;;5009358;28;20041;-53
2021/08/11 10:24:54;;;;;;;2.50;0.90;;;;;;;;;;5011324;28;20065;-53
2021/08/11 10:27:21;;;;;;;2.85;0.77;;;;;;;;;;5009859;28;20055;-54
2021/08/11 10:29:47;;;;;;;2.05;0.77;;;;;;;;;;5009968;28;20116;-54
2021/08/11 10:32:13;;;;;;;3.28;1.00;;;;;;;;;;5009790;28;20651;-54
2021/08/11 10:34:40;;;;;;;3.30;1.00;;;;;;;;;;5009697;28;20148;-54
2021/08/11 10:37:06;;;;;;;3.00;0.85;;;;;;;;;;5011091;28;20048;-55
2021/08/11 10:39:32;;;;;;;5.68;0.90;;;;;;;;;;5009710;28;20053;-55
2021/08/11 10:42:01;;;;;;;2.33;0.63;;;;;;;;;;5009313;28;20089;-52
2021/08/11 10:44:28;;;;;;;3.75;1.00;;;;;;;;;;5010361;28;21012;-55
2021/08/11 10:47:00;;;;;;;3.63;0.90;;;;;;;;;;5014833;28;20041;-53
2021/08/11 10:49:27;;;;;;;2.90;1.05;;;;;;;;;;5014254;28;20089;-54
2021/08/11 10:51:58;;;;;;;2.65;0.82;;;;;;;;;;5012667;28;20659;-54
2021/08/11 10:54:25;;;;;;;4.53;1.15;;;;;;;;;;5013283;28;20204;-54
2021/08/11 10:56:55;;;;;;;2.13;0.68;;;;;;;;;;5014605;28;20025;-52
2021/08/11 10:59:24;;;;;;;2.60;0.93;;;;;;;;;;5012727;28;20062;-53
2021/08/11 11:01:50;;;;;;;6.10;1.00;;;;;;;;;;5013135;28;20936;-51
2021/08/11 11:04:34;;;;;;;3.22;0.77;;;;;;;;;;5014626;28;20034;-54
2021/08/11 11:07:10;;;;;;;4.63;1.10;;;;;;;;;;5014276;28;20045;-54
2021/08/11 11:09:36;;;;;;;3.47;0.90;;;;;;;;;;5013766;28;20646;-53
2021/08/11 11:12:22;;;;;;;1.95;0.73;;;;;;;;;;5014181;28;20156;-55
2021/08/11 11:14:52;;;;;;;3.05;0.90;;;;;;;;;;4991128;28;20064;-51
2021/08/11 11:17:19;;;;;;;2.78;0.77;;;;;;;;;;5001797;28;20089;-54
2021/08/11 11:20:09;;;;;;;3.33;0.95;;;;;;;;;;5002152;28;20418;-51
2021/08/11 11:23:10;;;;;;;2.38;0.90;;;;;;;;;;4995198;28;20041;-54
2021/08/11 11:25:53;;;;;;;4.07;0.90;;;;;;;;;;4902653;29;20786;-54
2021/08/11 11:28:19;;;;;;;2.40;1.00;;;;;;;;;;4994004;28;20038;-53
2021/08/11 11:30:45;;;;;;;3.17;0.93;;;;;;;;;;5021890;28;20045;-55
2021/08/11 11:33:17;;;;;;;2.08;0.90;;;;;;;;;;5013656;28;20034;-51
2021/08/11 11:35:44;;;;;;;5.57;0.93;;;;;;;;;;5011894;28;20119;-54
2021/08/11 11:38:13;;;;;;;3.92;1.15;;;;;;;;;;5004501;28;20037;-53
2021/08/11 11:40:54;;;;;;;3.45;0.80;;;;;;;;;;5004399;28;20044;-55
2021/08/11 11:43:24;;;;;;;2.55;0.80;;;;;;;;;;5004237;28;20763;-54
2021/08/11 11:45:50;;;;;;;2.85;1.00;;;;;;;;;;5012171;28;20395;-54
2021/08/11 11:48:16;;;;;;;10.15;1.70;;;;;;;;;;5012319;28;20044;-54
2021/08/11 11:50:43;;;;;;;6.55;1.02;;;;;;;;;;5012994;28;20057;-51
2021/08/11 11:53:18;;;;;;;4.72;0.80;;;;;;;;;;5011953;28;20044;-52
2021/08/11 11:55:44;;;;;;;2.55;0.80;;;;;;;;;;4991781;28;20150;-52
2021/08/11 11:58:14;;;;;;;2.83;0.90;;;;;;;;;;5012388;28;20867;-53
2021/08/11 12:00:41;;;;;;;2.72;0.85;;;;;;;;;;5012851;28;20042;-55
2021/08/11 12:03:06;;;;;;;1.88;0.60;;;;;;;;;;5013426;28;20046;-53
2021/08/11 12:05:43;;;;;;;2.35;0.70;;;;;;;;;;5011897;28;20448;-54
2021/08/11 12:08:10;;;;;;;6.65;0.80;;;;;;;;;;5012673;28;20036;-56
2021/08/11 12:10:38;;;;;;;5.35;1.33;;;;;;;;;;5010337;28;20043;-56
2021/08/11 12:13:05;;;;;;;3.20;1.00;;;;;;;;;;4988811;28;20053;-56
2021/08/11 12:15:34;;;;;;;4.15;0.82;;;;;;;;;;5006935;28;22644;-56
2021/08/11 12:18:20;;;;;;;3.03;0.80;;;;;;;;;;4992953;28;20161;-56
2021/08/11 12:20:47;;;;;;;1.98;0.57;;;;;;;;;;5000875;28;20475;-56
2021/08/11 12:23:16;;;;;;;1.95;0.50;;;;;;;;;;4993065;28;20083;-56
2021/08/11 12:25:41;;;;;;;2.15;0.63;;;;;;;;;;4991963;28;20096;-55
2021/08/11 12:28:12;;;;;;;2.00;0.60;;;;;;;;;;4993065;28;20038;-56
2021/08/11 12:30:39;;;;;;;1.73;0.60;;;;;;;;;;4991324;28;20044;-56
2021/08/11 12:33:06;;;;;;;1.48;0.50;;;;;;;;;;4992960;28;20080;-54
2021/08/11 12:35:32;;;;;;;4.10;0.57;;;;;;;;;;4991143;28;20053;-56
2021/08/11 12:37:58;;;;;;;3.67;0.70;;;;;;;;;;4993450;28;20049;-55
2021/08/11 12:40:27;;;;;;;1.80;0.60;;;;;;;;;;4993650;28;20391;-56
2021/08/11 12:42:53;;;;;;;2.10;0.60;;;;;;;;;;4993055;28;20054;-56
2021/08/11 12:45:19;;;;;;;3.03;0.50;;;;;;;;;;4992789;28;20129;-55
2021/08/11 12:47:45;;;;;;;1.45;0.57;;;;;;;;;;4993726;28;20038;-56
2021/08/11 12:50:17;;;;;;;3.97;0.60;;;;;;;;;;4993789;28;20041;-55
2021/08/11 12:52:56;;;;;;;1.88;0.57;;;;;;;;;;4993837;28;20401;-56
2021/08/11 12:55:35;;;;;;;1.27;0.45;;;;;;;;;;4991559;28;20132;-56
2021/08/11 12:58:01;;;;;;;3.78;0.80;;;;;;;;;;4993323;28;20042;-56
2021/08/11 13:00:40;;;;;;;3.40;0.80;;;;;;;;;;4992534;28;20395;-55
2021/08/11 13:03:15;;;;;;;6.45;0.88;;;;;;;;;;4992910;28;20081;-53
2021/08/11 13:05:48;;;;;;;3.75;1.02;;;;;;;;;;4991834;28;20041;-55
2021/08/11 13:08:14;;;;;;;6.78;0.98;;;;;;;;;;4992925;28;20046;-55
2021/08/11 13:10:52;;;;;;;3.17;0.90;;;;;;;;;;4991803;28;20042;-54
2021/08/11 13:13:22;;;;;;;3.95;0.90;;;;;;;;;;5007533;28;20446;-54
2021/08/11 13:15:48;;;;;;;3.60;1.13;;;;;;;;;;4994521;28;20674;-55
2021/08/11 13:18:23;;;;;;;3.47;1.00;;;;;;;;;;4993136;28;20478;-55
2021/08/11 13:20:49;;;;;;;4.30;0.95;;;;;;;;;;4995390;28;20037;-54
2021/08/11 13:23:15;;;;;;;10.15;1.23;;;;;;;;;;4997897;28;20029;-53
2021/08/11 13:25:43;;;;;;;4.30;1.27;;;;;;;;;;4999370;28;20048;-55
2021/08/11 13:28:09;;;;;;;4.80;0.93;;;;;;;;;;4992405;28;20164;-54
2021/08/11 13:30:35;;;;;;;8.93;1.10;;;;;;;;;;4990077;28;20042;-55
2021/08/11 13:33:01;;;;;;;6.93;1.35;;;;;;;;;;4992318;28;20042;-54
2021/08/11 13:35:28;;;;;;;6.93;1.08;;;;;;;;;;4990114;28;20061;-55
2021/08/11 13:37:54;;;;;;;2.08;0.70;;;;;;;;;;4991066;28;20035;-54
2021/08/11 13:40:20;;;;;;;8.38;1.20;;;;;;;;;;4998977;28;20108;-54
2021/08/11 13:42:46;;;;;;;5.93;1.33;;;;;;;;;;4999997;28;20399;-55
2021/08/11 13:45:12;;;;;;;2.88;0.95;;;;;;;;;;4992108;28;20043;-55
2021/08/11 13:47:40;;;;;;;3.10;0.90;;;;;;;;;;4992305;28;20391;-54
2021/08/11 13:50:06;;;;;;;3.30;0.93;;;;;;;;;;4999199;28;20034;-56
2021/08/11 13:52:32;;;;;;;6.50;1.10;;;;;;;;;;4992436;28;20037;-53
2021/08/11 13:54:58;;;;;;;4.72;1.15;;;;;;;;;;5003016;28;20111;-53
2021/08/11 13:57:23;;;;;;;3.92;1.10;;;;;;;;;;4994256;28;20414;-55
2021/08/11 13:59:49;;;;;;;5.68;1.02;;;;;;;;;;5003472;28;20061;-56
2021/08/11 14:02:15;;;;;;;4.32;1.10;;;;;;;;;;5002906;28;20042;-54
2021/08/11 14:04:41;;;;;;;8.25;1.13;;;;;;;;;;4994754;28;20041;-53
2021/08/11 14:07:07;;;;;;;6.05;1.60;;;;;;;;;;5002742;28;20094;-54
2021/08/11 14:09:32;;;;;;;4.90;1.55;;;;;;;;;;5000418;28;20036;-53
2021/08/11 14:11:59;;;;;;;4.60;1.40;;;;;;;;;;4990862;28;20193;-54
2021/08/11 14:14:25;;;;;;;3.50;1.27;;;;;;;;;;5006568;28;20257;-54
2021/08/11 14:16:51;;;;;;;3.75;1.17;;;;;;;;;;4992199;28;20522;-54
2021/08/11 14:19:17;;;;;;;5.30;1.40;;;;;;;;;;5007417;28;20042;-53
2021/08/11 14:21:43;;;;;;;5.03;1.70;;;;;;;;;;4995492;28;20046;-54
2021/08/11 14:24:09;;;;;;;11.80;1.40;;;;;;;;;;5004746;28;20045;-54
2021/08/11 14:26:35;;;;;;;2.53;0.90;;;;;;;;;;5001144;28;20035;-53
2021/08/11 14:29:01;;;;;;;5.70;1.42;;;;;;;;;;5003424;28;20041;-53
2021/08/11 14:31:28;;;;;;;5.53;1.67;;;;;;;;;;5010051;28;21010;-53
2021/08/11 14:33:54;;;;;;;4.70;1.02;;;;;;;;;;5002998;28;20474;-54
2021/08/11 14:36:20;;;;;;;5.85;1.70;;;;;;;;;;5003067;28;20049;-52
2021/08/11 14:38:46;;;;;;;2.75;0.80;;;;;;;;;;4991530;28;20046;-54
2021/08/11 14:41:12;;;;;;;3.28;1.02;;;;;;;;;;4981653;28;20049;-55
2021/08/11 14:43:38;;;;;;;13.98;2.20;;;;;;;;;;4983693;28;20041;-53
2021/08/11 14:46:05;;;;;;;3.33;1.00;;;;;;;;;;4995570;28;20462;-54